Time;durP1;ratioP1;P1;durP2;ratioP2;P2;SDS_P1;SDS_P2;PMS_P1;PMS_P2;Temp;Humidity;BMP_temperature;BMP_pressure;BME280_temperature;BME280_humidity;BME280_pressure;Samples;Min_cycle;Max_cycle;Signal;HPM_P1;HPM_P2
2021/07/13 00:00:22;;;;;;;56.22;43.97;;;20.40;99.90;;;;;;5097524;28;20046;-76
2021/07/13 00:02:48;;;;;;;62.60;45.28;;;20.40;99.90;;;;;;5098594;28;21069;-76
2021/07/13 00:05:17;;;;;;;57.95;45.42;;;20.40;99.90;;;;;;5114552;28;20052;-80
2021/07/13 00:07:44;;;;;;;56.63;44.22;;;20.30;99.90;;;;;;5115590;28;20071;-80
2021/07/13 00:10:12;;;;;;;55.97;43.67;;;20.30;99.90;;;;;;5097061;28;20031;-76
2021/07/13 00:12:39;;;;;;;59.50;44.63;;;20.30;99.90;;;;;;5115130;28;20051;-76
2021/07/13 00:15:11;;;;;;;62.92;45.83;;;20.30;99.90;;;;;;5115069;28;20489;-76
2021/07/13 00:17:38;;;;;;;66.28;47.72;;;20.30;99.90;;;;;;5115519;28;20059;-76
2021/07/13 00:20:05;;;;;;;63.97;47.80;;;20.20;99.90;;;;;;5115296;28;20035;-76
2021/07/13 00:22:32;;;;;;;62.40;45.83;;;20.20;99.90;;;;;;5095633;28;20031;-76
2021/07/13 00:25:01;;;;;;;61.97;47.15;;;20.20;99.90;;;;;;5114802;28;20036;-76
2021/07/13 00:27:26;;;;;;;62.08;46.53;;;20.20;99.90;;;;;;5096954;28;20043;-76
2021/07/13 00:29:52;;;;;;;60.85;48.08;;;20.20;99.90;;;;;;5096876;28;20050;-76
2021/07/13 00:32:18;;;;;;;60.20;46.33;;;20.20;99.90;;;;;;5080489;28;20108;-76
2021/07/13 00:34:49;;;;;;;58.10;45.35;;;20.20;99.90;;;;;;5096264;28;20398;-76
2021/07/13 00:37:15;;;;;;;62.15;46.30;;;20.10;99.90;;;;;;5098837;28;20051;-76
2021/07/13 00:39:41;;;;;;;60.85;44.75;;;20.20;99.90;;;;;;5095290;28;20035;-76
2021/07/13 00:42:14;;;;;;;59.75;44.13;;;20.10;99.90;;;;;;5096759;28;20088;-76
2021/07/13 00:44:45;;;;;;;60.90;43.30;;;20.20;99.90;;;;;;5096960;28;20043;-75
2021/07/13 00:47:12;;;;;;;61.15;43.72;;;20.20;99.90;;;;;;5079578;28;20042;-76
2021/07/13 00:49:38;;;;;;;58.38;44.42;;;20.20;99.90;;;;;;5113471;28;20039;-76
2021/07/13 00:52:05;;;;;;;55.60;41.55;;;20.20;99.90;;;;;;5114320;28;20031;-76
2021/07/13 00:54:32;;;;;;;55.17;39.80;;;20.10;99.90;;;;;;5114681;28;20136;-76
2021/07/13 00:56:58;;;;;;;56.58;42.13;;;20.10;99.90;;;;;;5096598;28;20077;-76
2021/07/13 00:59:25;;;;;;;50.25;41.22;;;20.20;99.90;;;;;;5076281;28;20040;-76
2021/07/13 01:01:51;;;;;;;58.22;43.22;;;20.00;99.90;;;;;;5089862;28;20046;-76
2021/07/13 01:04:18;;;;;;;53.75;42.67;;;20.10;99.90;;;;;;5114449;28;20114;-76
2021/07/13 01:07:10;;;;;;;60.92;44.55;;;20.10;99.90;;;;;;5112904;27;20049;-76
2021/07/13 01:09:54;;;;;;;59.55;44.97;;;20.10;99.90;;;;;;5096008;28;20040;-76
2021/07/13 01:12:52;;;;;;;56.88;43.90;;;20.10;99.90;;;;;;5095949;28;20039;-76
2021/07/13 01:15:20;;;;;;;61.05;45.03;;;20.00;99.90;;;;;;5098414;27;20043;-77
2021/07/13 01:18:11;;;;;;;65.47;47.60;;;20.00;99.90;;;;;;5097344;28;20039;-80
2021/07/13 01:21:11;;;;;;;56.30;44.92;;;20.00;99.90;;;;;;5113568;28;20412;-77
2021/07/13 01:23:55;;;;;;;59.90;46.15;;;19.90;99.90;;;;;;5088819;28;20032;-77
2021/07/13 01:26:29;;;;;;;60.38;46.63;;;19.90;99.90;;;;;;5114348;28;20048;-77
2021/07/13 01:29:06;;;;;;;62.50;47.83;;;19.90;99.90;;;;;;5113669;28;20114;-76
2021/07/13 01:31:32;;;;;;;61.97;46.17;;;19.80;99.90;;;;;;5113379;28;20562;-76
2021/07/13 01:34:07;;;;;;;61.85;46.17;;;19.80;99.90;;;;;;5091265;28;20055;-80
2021/07/13 01:36:39;;;;;;;63.45;44.83;;;19.80;99.90;;;;;;5105474;28;20039;-81
2021/07/13 01:39:07;;;;;;;61.05;46.95;;;19.80;99.90;;;;;;5112542;28;20085;-80
2021/07/13 01:41:33;;;;;;;61.15;46.47;;;19.80;99.90;;;;;;5112696;28;20062;-80
2021/07/13 01:44:00;;;;;;;61.30;46.78;;;19.80;99.90;;;;;;5113716;28;20066;-80
2021/07/13 01:46:30;;;;;;;60.80;46.58;;;19.80;99.90;;;;;;5078974;28;20404;-80
2021/07/13 01:49:00;;;;;;;55.90;45.13;;;19.80;99.90;;;;;;5095411;28;20047;-80
2021/07/13 01:51:27;;;;;;;56.80;45.75;;;19.80;99.90;;;;;;5113632;28;20085;-80
2021/07/13 01:53:54;;;;;;;60.35;46.17;;;19.80;99.90;;;;;;5095536;28;20110;-80
2021/07/13 01:56:21;;;;;;;54.70;44.25;;;19.80;99.90;;;;;;5096045;28;20052;-80
2021/07/13 01:58:48;;;;;;;65.40;47.40;;;19.80;99.90;;;;;;5113311;28;20054;-80
2021/07/13 02:01:20;;;;;;;62.13;46.08;;;19.80;99.90;;;;;;5078546;28;20043;-80
2021/07/13 02:03:50;;;;;;;57.75;44.15;;;19.80;99.90;;;;;;5095742;28;20407;-80
2021/07/13 02:06:20;;;;;;;57.55;44.88;;;19.70;99.90;;;;;;5094647;28;20035;-77
2021/07/13 02:08:50;;;;;;;53.42;42.28;;;19.70;99.90;;;;;;5112209;28;20042;-76
2021/07/13 02:11:16;;;;;;;53.10;43.42;;;19.70;99.90;;;;;;5093745;28;20044;-76
2021/07/13 02:13:42;;;;;;;51.63;43.30;;;19.70;99.90;;;;;;5112136;28;20042;-76
2021/07/13 02:16:08;;;;;;;58.67;42.88;;;19.70;99.90;;;;;;5113436;28;20065;-76
2021/07/13 02:18:34;;;;;;;54.35;42.45;;;19.80;99.90;;;;;;5095397;28;20471;-81
2021/07/13 02:21:01;;;;;;;51.92;42.30;;;19.80;99.90;;;;;;5095129;28;20035;-81
2021/07/13 02:23:31;;;;;;;46.63;39.88;;;19.80;99.90;;;;;;5076963;28;20039;-80
2021/07/13 02:26:02;;;;;;;48.85;41.15;;;19.80;99.90;;;;;;5113170;28;20039;-81
2021/07/13 02:28:34;;;;;;;48.92;41.58;;;19.80;99.90;;;;;;5093444;27;20148;-81
2021/07/13 02:31:24;;;;;;;56.25;44.28;;;19.80;99.90;;;;;;5068841;28;20131;-81
2021/07/13 02:34:05;;;;;;;52.38;40.70;;;19.80;99.90;;;;;;5112997;28;20448;-81
2021/07/13 02:36:34;;;;;;;51.35;41.22;;;19.80;99.90;;;;;;5113140;28;20050;-80
2021/07/13 02:39:01;;;;;;;55.70;42.63;;;19.80;99.90;;;;;;5094738;28;20115;-80
2021/07/13 02:41:28;;;;;;;50.92;40.97;;;19.80;99.90;;;;;;5111767;28;20042;-80
2021/07/13 02:43:55;;;;;;;52.97;41.78;;;19.80;99.90;;;;;;5094278;28;20030;-81
2021/07/13 02:46:28;;;;;;;52.38;42.45;;;19.80;99.90;;;;;;5094003;28;20391;-76
2021/07/13 02:48:56;;;;;;;49.63;40.65;;;19.70;99.90;;;;;;5112460;28;20394;-76
2021/07/13 02:51:25;;;;;;;56.90;43.15;;;19.70;99.90;;;;;;5094763;28;20046;-76
2021/07/13 02:53:53;;;;;;;53.30;41.67;;;19.70;99.90;;;;;;5112559;28;20035;-76
2021/07/13 02:56:23;;;;;;;55.20;42.97;;;19.70;99.90;;;;;;5094300;28;20085;-80
2021/07/13 02:58:50;;;;;;;55.45;43.90;;;19.60;99.90;;;;;;5077170;28;20059;-80
2021/07/13 03:01:16;;;;;;;56.95;42.90;;;19.60;99.90;;;;;;5112869;28;20059;-76
2021/07/13 03:03:47;;;;;;;56.25;44.05;;;19.60;99.90;;;;;;5076894;28;20482;-76
2021/07/13 03:06:15;;;;;;;55.83;41.80;;;20.00;99.90;;;;;;5093275;28;20107;-76
2021/07/13 03:08:41;;;;;;;53.55;42.15;;;19.60;99.90;;;;;;5112113;28;20046;-79
2021/07/13 03:11:08;;;;;;;54.28;41.15;;;19.60;99.90;;;;;;5112636;28;20034;-80
2021/07/13 03:13:35;;;;;;;55.50;43.90;;;19.60;99.90;;;;;;5094587;28;20483;-80
2021/07/13 03:16:01;;;;;;;56.55;43.17;;;19.60;99.90;;;;;;5094788;28;20051;-80
2021/07/13 03:18:30;;;;;;;52.05;41.55;;;19.70;99.90;;;;;;5111076;28;20062;-80
2021/07/13 03:20:59;;;;;;;55.03;44.10;;;19.60;99.90;;;;;;5093546;28;20043;-80
2021/07/13 03:23:26;;;;;;;54.95;42.92;;;19.60;99.90;;;;;;5095853;28;20028;-81
2021/07/13 03:25:52;;;;;;;59.35;45.15;;;19.60;99.90;;;;;;5084430;28;20070;-80
2021/07/13 03:28:20;;;;;;;58.22;45.97;;;19.60;99.90;;;;;;5108374;28;20032;-80
2021/07/13 03:30:48;;;;;;;60.95;46.45;;;20.00;99.90;;;;;;5112205;28;20081;-81
2021/07/13 03:33:15;;;;;;;61.25;46.10;;;19.60;99.90;;;;;;5112733;28;20040;-80
2021/07/13 03:35:42;;;;;;;63.15;48.88;;;19.60;99.90;;;;;;5115919;28;20035;-80
2021/07/13 03:38:08;;;;;;;62.03;47.17;;;19.60;99.90;;;;;;5114620;28;20035;-80
2021/07/13 03:40:34;;;;;;;66.10;50.90;;;19.50;99.90;;;;;;5115289;28;20031;-80
2021/07/13 03:43:00;;;;;;;64.00;50.83;;;19.50;99.90;;;;;;5097984;28;20472;-80
2021/07/13 03:45:29;;;;;;;66.50;50.58;;;19.50;99.90;;;;;;5115919;28;20039;-80
2021/07/13 03:48:00;;;;;;;71.57;53.35;;;19.60;99.90;;;;;;5115682;28;20046;-79
2021/07/13 03:50:33;;;;;;;65.95;50.53;;;19.50;99.90;;;;;;5097835;28;20087;-80
2021/07/13 03:52:59;;;;;;;65.80;49.70;;;19.50;99.90;;;;;;5096401;28;20028;-76
2021/07/13 03:55:26;;;;;;;70.18;52.45;;;19.50;99.90;;;;;;5089620;28;20028;-76
2021/07/13 03:57:54;;;;;;;66.55;48.17;;;19.50;99.90;;;;;;5098888;28;20046;-76
2021/07/13 04:00:21;;;;;;;74.63;53.47;;;19.60;99.90;;;;;;5115437;28;20119;-77
2021/07/13 04:02:47;;;;;;;69.13;51.63;;;19.60;99.90;;;;;;5083540;28;20043;-76
2021/07/13 04:05:14;;;;;;;64.30;51.33;;;19.60;99.90;;;;;;5104850;28;20094;-76
2021/07/13 04:07:41;;;;;;;70.57;54.33;;;19.60;99.90;;;;;;5114635;28;20092;-79
2021/07/13 04:10:09;;;;;;;69.47;52.88;;;19.60;99.90;;;;;;5096303;28;20044;-80
2021/07/13 04:12:35;;;;;;;66.97;52.20;;;19.60;99.90;;;;;;5115453;28;20043;-80
2021/07/13 04:15:01;;;;;;;72.88;53.03;;;19.60;99.90;;;;;;5098521;28;20365;-79
2021/07/13 04:17:30;;;;;;;71.70;54.20;;;19.60;99.90;;;;;;5115429;28;20047;-78
2021/07/13 04:19:56;;;;;;;68.07;53.15;;;19.60;99.90;;;;;;5097368;28;20047;-79
2021/07/13 04:22:23;;;;;;;71.22;54.60;;;19.60;99.90;;;;;;5115440;28;20039;-79
2021/07/13 04:24:49;;;;;;;80.75;58.42;;;19.60;99.90;;;;;;5110308;28;20123;-78
2021/07/13 04:27:15;;;;;;;73.28;54.58;;;19.50;99.90;;;;;;5113842;28;20110;-78
2021/07/13 04:29:40;;;;;;;72.00;54.50;;;19.50;99.90;;;;;;5115296;28;20043;-79
2021/07/13 04:32:07;;;;;;;70.10;54.10;;;19.50;99.90;;;;;;5114960;28;20028;-79
2021/07/13 04:34:34;;;;;;;80.80;55.88;;;19.60;99.90;;;;;;5096493;28;20028;-78
2021/07/13 04:37:01;;;;;;;68.70;53.65;;;19.60;99.90;;;;;;5114827;28;20039;-78
2021/07/13 04:39:27;;;;;;;70.72;54.95;;;19.60;99.90;;;;;;5115089;28;20032;-75
2021/07/13 04:41:53;;;;;;;74.50;54.22;;;19.60;99.90;;;;;;5114949;27;20035;-75
2021/07/13 04:44:19;;;;;;;73.57;53.92;;;19.60;99.90;;;;;;5094745;28;20039;-75
2021/07/13 04:46:47;;;;;;;70.32;54.25;;;19.60;99.90;;;;;;5095340;28;20040;-75
2021/07/13 04:49:13;;;;;;;72.65;52.90;;;19.60;99.90;;;;;;5114925;28;20076;-75
2021/07/13 04:51:40;;;;;;;78.15;55.35;;;19.70;99.90;;;;;;5096632;28;20038;-75
2021/07/13 04:54:05;;;;;;;76.88;55.05;;;19.70;99.90;;;;;;5114456;28;20035;-75
2021/07/13 04:56:31;;;;;;;74.03;53.33;;;19.70;99.90;;;;;;5114348;28;20406;-75
2021/07/13 04:58:57;;;;;;;83.22;54.58;;;19.70;99.90;;;;;;5095752;28;20055;-75
2021/07/13 05:01:23;;;;;;;82.10;53.53;;;19.70;99.90;;;;;;5078166;28;20031;-75
2021/07/13 05:03:49;;;;;;;73.90;53.20;;;19.70;99.90;;;;;;5098837;28;20498;-75
2021/07/13 05:06:15;;;;;;;81.85;53.50;;;19.70;99.90;;;;;;5114870;28;20036;-75
2021/07/13 05:08:42;;;;;;;79.68;54.03;;;19.70;99.90;;;;;;5096836;28;20042;-75
2021/07/13 05:11:08;;;;;;;75.05;50.88;;;19.70;99.90;;;;;;5116047;28;20102;-75
2021/07/13 05:13:34;;;;;;;75.50;51.58;;;19.70;99.90;;;;;;5114166;28;20046;-75
2021/07/13 05:16:00;;;;;;;79.68;51.47;;;19.80;99.90;;;;;;5114258;28;20040;-75
2021/07/13 05:18:26;;;;;;;70.30;47.88;;;19.80;99.90;;;;;;5109791;28;20472;-75
2021/07/13 05:21:01;;;;;;;71.45;48.15;;;19.80;99.90;;;;;;5113838;28;20043;-75
2021/07/13 05:23:27;;;;;;;69.97;47.45;;;19.80;99.90;;;;;;5097115;28;20399;-76
2021/07/13 05:25:53;;;;;;;60.33;44.72;;;19.80;99.90;;;;;;5112896;28;20040;-75
2021/07/13 05:28:19;;;;;;;55.88;41.78;;;19.90;99.90;;;;;;5113356;28;20035;-76
2021/07/13 05:30:45;;;;;;;60.70;42.88;;;19.90;99.90;;;;;;5095917;28;20036;-77
2021/07/13 05:33:14;;;;;;;56.25;41.15;;;19.90;99.90;;;;;;5095815;28;20032;-77
2021/07/13 05:35:42;;;;;;;55.75;40.55;;;19.90;99.90;;;;;;5113450;28;20042;-77
2021/07/13 05:38:08;;;;;;;50.00;37.33;;;20.00;99.90;;;;;;5096869;28;20028;-77
2021/07/13 05:40:37;;;;;;;52.58;37.22;;;20.00;99.90;;;;;;5095980;28;20032;-77
2021/07/13 05:43:03;;;;;;;48.50;35.50;;;20.00;99.90;;;;;;5112703;28;20040;-77
2021/07/13 05:45:32;;;;;;;49.80;36.78;;;20.00;99.90;;;;;;5095741;28;20036;-77
2021/07/13 05:47:57;;;;;;;49.20;35.70;;;20.00;99.90;;;;;;5096089;28;20058;-77
2021/07/13 05:50:23;;;;;;;45.58;33.92;;;20.00;99.90;;;;;;5095674;28;20479;-80
2021/07/13 05:52:49;;;;;;;48.53;35.92;;;20.00;99.90;;;;;;5102426;28;20053;-78
2021/07/13 05:55:15;;;;;;;47.17;35.88;;;20.00;99.90;;;;;;5079995;28;20113;-77
2021/07/13 05:57:41;;;;;;;51.47;36.53;;;20.00;99.90;;;;;;5095143;28;20059;-75
2021/07/13 06:00:09;;;;;;;56.08;38.38;;;20.10;99.90;;;;;;5093874;28;20100;-77
2021/07/13 06:02:38;;;;;;;60.13;39.80;;;20.10;99.90;;;;;;5095000;28;20058;-74
2021/07/13 06:05:05;;;;;;;63.90;41.47;;;20.10;99.90;;;;;;5090063;28;20035;-79
2021/07/13 06:08:00;;;;;;;58.38;41.25;;;20.10;99.90;;;;;;5098342;28;20043;-79
2021/07/13 06:10:28;;;;;;;64.73;40.73;;;20.20;99.90;;;;;;5108638;28;20040;-83
2021/07/13 06:12:54;;;;;;;57.90;38.08;;;20.10;99.90;;;;;;5090461;28;20028;-84
2021/07/13 06:15:20;;;;;;;58.45;39.33;;;20.00;99.90;;;;;;5096414;28;20399;-85
2021/07/13 06:17:46;;;;;;;55.88;38.65;;;20.20;99.90;;;;;;5106909;28;20039;-86
2021/07/13 06:20:13;;;;;;;51.88;34.00;;;20.30;99.90;;;;;;5093675;28;20054;-88
2021/07/13 06:22:43;;;;;;;55.72;33.83;;;20.30;99.90;;;;;;5114265;28;20081;-87
2021/07/13 06:25:10;;;;;;;44.83;29.55;;;20.30;99.90;;;;;;5095235;28;20024;-87
2021/07/13 06:27:36;;;;;;;45.88;30.23;;;20.30;99.90;;;;;;5077415;28;20058;-81
2021/07/13 06:30:04;;;;;;;42.55;27.67;;;20.30;99.90;;;;;;5113023;28;20118;-82
2021/07/13 06:32:30;;;;;;;39.72;25.98;;;20.30;99.90;;;;;;5095055;28;20035;-81
2021/07/13 06:34:56;;;;;;;36.80;25.45;;;20.30;99.90;;;;;;5112136;28;20429;-83
2021/07/13 06:37:21;;;;;;;33.67;24.30;;;20.30;99.90;;;;;;5112392;28;20107;-84
2021/07/13 06:39:51;;;;;;;34.97;24.05;;;20.30;99.90;;;;;;5078399;28;20122;-86
2021/07/13 06:42:17;;;;;;;36.38;24.05;;;20.40;99.90;;;;;;5099223;28;20102;-85
2021/07/13 06:44:45;;;;;;;31.80;22.95;;;20.30;99.90;;;;;;5092904;28;20115;-83
2021/07/13 06:47:14;;;;;;;34.15;23.42;;;20.40;99.90;;;;;;5092010;28;20031;-82
2021/07/13 06:49:46;;;;;;;36.47;23.00;;;20.30;99.90;;;;;;5090743;28;20044;-82
2021/07/13 06:52:12;;;;;;;30.63;22.65;;;20.40;99.90;;;;;;5077362;28;20120;-82
2021/07/13 06:54:37;;;;;;;30.75;22.83;;;20.30;99.90;;;;;;5076718;28;20028;-81
2021/07/13 06:57:04;;;;;;;30.63;22.35;;;20.30;99.90;;;;;;5109781;28;20032;-82
2021/07/13 06:59:30;;;;;;;32.63;22.63;;;20.30;99.90;;;;;;5091217;28;20093;-83
2021/07/13 07:01:56;;;;;;;32.33;22.80;;;20.40;99.90;;;;;;5070037;28;20041;-82
2021/07/13 07:04:40;;;;;;;35.92;23.20;;;20.30;99.90;;;;;;5090587;28;20052;-87
2021/07/13 07:07:56;;;;;;;29.00;21.70;;;20.40;99.90;;;;;;5073792;28;20059;-82
2021/07/13 07:10:36;;;;;;;31.67;22.52;;;20.60;99.90;;;;;;5082852;28;20048;-82
2021/07/13 07:13:23;;;;;;;31.45;21.48;;;20.20;99.90;;;;;;5070553;28;20044;-81
2021/07/13 07:16:04;;;;;;;;;;;;;;;;;;;;;
2021/07/13 07:18:33;;;;;;;31.15;21.25;;;20.50;99.90;;;;;;5085612;28;20024;-86
2021/07/13 07:21:01;;;;;;;29.92;22.27;;;20.50;99.90;;;;;;5099603;28;20061;-86
2021/07/13 07:23:41;;;;;;;32.50;21.08;;;20.50;99.90;;;;;;5095718;28;20040;-86
2021/07/13 07:26:09;;;;;;;30.85;22.23;;;20.50;99.90;;;;;;5093615;28;20043;-82
2021/07/13 07:28:35;;;;;;;31.23;21.75;;;20.60;99.90;;;;;;5093001;28;20492;-82
2021/07/13 07:31:01;;;;;;;35.33;22.58;;;20.60;99.90;;;;;;5075603;28;20040;-82
2021/07/13 07:33:30;;;;;;;25.55;20.48;;;20.50;99.90;;;;;;5095191;28;20081;-82
2021/07/13 07:35:57;;;;;;;31.25;20.65;;;20.60;99.90;;;;;;5088469;28;20036;-80
2021/07/13 07:38:22;;;;;;;28.83;20.67;;;20.60;99.90;;;;;;5092780;28;20059;-80
2021/07/13 07:40:48;;;;;;;28.83;22.17;;;20.60;99.90;;;;;;5083238;28;20074;-80
2021/07/13 07:43:14;;;;;;;31.27;21.60;;;20.60;99.90;;;;;;5096577;28;20084;-79
2021/07/13 07:45:42;;;;;;;30.60;21.05;;;20.60;99.90;;;;;;5095258;28;20036;-80
2021/07/13 07:48:08;;;;;;;30.02;21.00;;;20.60;99.90;;;;;;5094122;28;20033;-78
2021/07/13 07:50:34;;;;;;;27.17;20.77;;;20.60;99.90;;;;;;5096938;28;20038;-78
2021/07/13 07:53:00;;;;;;;29.80;21.60;;;20.60;99.90;;;;;;5081898;28;20044;-78
2021/07/13 07:55:28;;;;;;;28.67;21.20;;;20.70;99.90;;;;;;5093371;28;20036;-78
2021/07/13 07:57:55;;;;;;;26.98;19.90;;;20.70;99.90;;;;;;5100508;28;20028;-81
2021/07/13 08:00:25;;;;;;;25.65;20.23;;;20.70;99.90;;;;;;5089402;28;20052;-87
2021/07/13 08:02:51;;;;;;;28.08;21.63;;;20.90;99.90;;;;;;5091640;28;20377;-87
2021/07/13 08:05:24;;;;;;;29.38;21.05;;;20.80;99.90;;;;;;5099242;28;20035;-86
2021/07/13 08:07:50;;;;;;;26.92;20.55;;;20.90;99.90;;;;;;5082767;28;20043;-87
2021/07/13 08:10:16;;;;;;;27.42;19.63;;;20.90;99.90;;;;;;5080879;28;20055;-85
2021/07/13 08:12:45;;;;;;;23.58;19.08;;;21.00;99.90;;;;;;5093982;28;20114;-81
2021/07/13 08:15:16;;;;;;;24.98;18.85;;;21.10;99.90;;;;;;5106098;28;20044;-87
2021/07/13 08:17:45;;;;;;;25.35;19.45;;;21.00;99.90;;;;;;5094688;28;20048;-86
2021/07/13 08:20:19;;;;;;;24.30;18.33;;;21.20;99.90;;;;;;5084108;28;20476;-86
2021/07/13 08:22:49;;;;;;;24.80;18.88;;;21.30;99.90;;;;;;5089199;28;20386;-86
2021/07/13 08:25:19;;;;;;;22.08;17.45;;;21.30;99.90;;;;;;5076120;28;20048;-87
2021/07/13 08:27:50;;;;;;;19.55;16.80;;;21.40;99.90;;;;;;5100822;28;20058;-87
2021/07/13 08:30:19;;;;;;;23.10;16.75;;;21.40;99.90;;;;;;5099611;28;20036;-89
2021/07/13 08:32:55;;;;;;;21.58;17.65;;;21.40;99.90;;;;;;5074893;28;20044;-88
2021/07/13 08:35:23;;;;;;;21.67;17.02;;;21.50;99.90;;;;;;5066172;28;20040;-89
2021/07/13 08:37:51;;;;;;;20.83;16.25;;;21.60;99.90;;;;;;5084341;28;20095;-88
2021/07/13 08:40:18;;;;;;;18.85;15.25;;;21.60;99.90;;;;;;5098854;28;20052;-87
2021/07/13 08:42:50;;;;;;;24.08;17.48;;;21.70;99.90;;;;;;5095378;28;20463;-84
2021/07/13 08:45:19;;;;;;;22.60;16.70;;;21.70;99.90;;;;;;5070431;28;20044;-84
2021/07/13 08:47:54;;;;;;;23.77;17.58;;;21.70;99.90;;;;;;5089349;28;20492;-83
2021/07/13 08:50:27;;;;;;;19.38;16.08;;;21.70;99.90;;;;;;5071447;28;20036;-84
2021/07/13 08:53:06;;;;;;;21.42;15.82;;;21.70;99.90;;;;;;5093895;28;20109;-84
2021/07/13 08:55:41;;;;;;;20.52;18.10;;;21.80;99.90;;;;;;5095178;28;20035;-84
2021/07/13 08:58:15;;;;;;;21.73;16.88;;;21.70;99.90;;;;;;5076680;28;20072;-85
2021/07/13 09:00:42;;;;;;;22.90;17.58;;;21.70;99.90;;;;;;5085296;28;20044;-86
2021/07/13 09:03:18;;;;;;;25.48;17.13;;;21.80;99.90;;;;;;5095367;28;20051;-88
2021/07/13 09:05:52;;;;;;;24.02;18.08;;;21.90;99.90;;;;;;5089577;28;20032;-87
2021/07/13 09:08:32;;;;;;;28.05;18.30;;;21.90;99.90;;;;;;5091543;28;20039;-87
2021/07/13 09:11:03;;;;;;;25.15;19.23;;;21.90;99.90;;;;;;5089836;28;20039;-88
2021/07/13 09:13:34;;;;;;;22.65;18.45;;;21.90;99.90;;;;;;5090266;28;20440;-87
2021/07/13 09:16:04;;;;;;;25.55;18.63;;;22.00;99.90;;;;;;5076892;28;20048;-86
2021/07/13 09:18:45;;;;;;;26.33;18.90;;;21.90;99.90;;;;;;5097952;28;20051;-87
2021/07/13 09:21:13;;;;;;;31.00;20.08;;;22.00;99.90;;;;;;5082879;28;20032;-87
2021/07/13 09:24:09;;;;;;;25.65;18.73;;;22.00;99.90;;;;;;5093436;28;20055;-88
2021/07/13 09:26:50;;;;;;;27.95;19.88;;;22.00;99.90;;;;;;5088462;28;20510;-88
2021/07/13 09:29:51;;;;;;;28.27;19.58;;;22.00;99.90;;;;;;5085819;28;20552;-88
2021/07/13 09:32:23;;;;;;;32.13;19.60;;;22.00;99.90;;;;;;5046327;28;20125;-88
2021/07/13 09:35:28;;;;;;;23.90;19.48;;;22.00;99.90;;;;;;5093184;28;20392;-81
2021/07/13 09:38:05;;;;;;;24.10;19.23;;;22.00;99.90;;;;;;5097426;28;20040;-86
2021/07/13 09:40:40;;;;;;;22.25;18.50;;;22.00;99.90;;;;;;5093614;28;20070;-85
2021/07/13 09:43:06;;;;;;;;;;;22.00;99.90;;;;;;5080609;28;20070;-85
2021/07/13 09:45:35;;;;;;;26.27;18.58;;;22.00;99.90;;;;;;5081440;28;19916;-85
2021/07/13 09:48:30;;;;;;;30.98;19.90;;;22.00;99.90;;;;;;5073650;28;20061;-84
2021/07/13 09:51:09;;;;;;;26.73;19.02;;;22.10;99.90;;;;;;5074047;28;20072;-84
2021/07/13 09:53:45;;;;;;;26.92;20.17;;;22.10;99.90;;;;;;5089728;28;20067;-83
2021/07/13 09:56:36;;;;;;;25.40;19.75;;;22.10;99.90;;;;;;5049387;28;20100;-82
2021/07/13 09:59:15;;;;;;;;;;;;;;;;;;;;;
2021/07/13 10:01:42;;;;;;;31.00;20.20;;;22.10;99.90;;;;;;5113946;28;20119;-90
2021/07/13 10:04:08;;;;;;;25.10;19.88;;;22.10;99.90;;;;;;5079204;28;20483;-90
2021/07/13 10:06:38;;;;;;;31.33;20.95;;;22.10;99.90;;;;;;5115544;28;20040;-89
2021/07/13 10:09:29;;;;;;;26.40;21.35;;;22.10;99.90;;;;;;5091996;28;20035;-89
2021/07/13 10:12:03;;;;;;;31.83;19.85;;;22.10;99.90;;;;;;5097104;28;20032;-89
2021/07/13 10:14:36;;;;;;;29.15;21.13;;;22.20;99.90;;;;;;5098734;28;20047;-90
2021/07/13 10:17:02;;;;;;;30.02;20.10;;;22.20;99.90;;;;;;5115286;28;20042;-90
2021/07/13 10:19:35;;;;;;;30.23;19.80;;;22.10;99.90;;;;;;5079820;28;20056;-89
2021/07/13 10:22:07;;;;;;;30.58;20.25;;;22.10;99.90;;;;;;5105656;28;20061;-88
2021/07/13 10:24:43;;;;;;;29.00;20.80;;;22.10;99.90;;;;;;5049678;28;20102;-88
2021/07/13 10:27:41;;;;;;;26.48;20.73;;;22.10;99.90;;;;;;5065614;28;20043;-88
2021/07/13 10:33:56;;;;;;;25.95;19.40;;;22.00;99.90;;;;;;5098528;28;20051;-90
2021/07/13 10:37:01;;;;;;;30.42;20.50;;;22.00;99.90;;;;;;5102722;28;20153;-88
2021/07/13 10:39:52;;;;;;;33.05;22.27;;;21.90;99.90;;;;;;5096395;28;20039;-88
2021/07/13 10:43:12;;;;;;;29.63;21.85;;;22.00;99.90;;;;;;5079500;28;20131;-88
2021/07/13 10:46:10;;;;;;;30.58;21.35;;;22.00;99.90;;;;;;5079600;28;20437;-88
2021/07/13 10:49:25;;;;;;;30.92;21.25;;;22.00;99.90;;;;;;5064703;28;20123;-90
2021/07/13 10:52:58;;;;;;;28.83;18.95;;;21.90;99.90;;;;;;5055081;28;20484;-90
2021/07/13 10:55:37;;;;;;;24.02;19.67;;;21.90;99.90;;;;;;5066714;28;20062;-90
2021/07/13 10:58:17;;;;;;;25.13;19.45;;;21.70;99.90;;;;;;5082337;28;20142;-87
2021/07/13 11:01:14;;;;;;;32.50;20.25;;;21.90;99.90;;;;;;5090522;28;20063;-88
2021/07/13 11:07:47;;;;;;;26.15;18.58;;;21.90;99.90;;;;;;5078378;28;20044;-88
2021/07/13 11:10:37;;;;;;;30.05;19.88;;;21.90;99.90;;;;;;5068603;28;20040;-88
2021/07/13 11:13:23;;;;;;;29.30;20.60;;;21.90;99.90;;;;;;5056167;28;20036;-90
2021/07/13 11:15:51;;;;;;;34.75;21.67;;;22.00;99.90;;;;;;5092014;28;20055;-89
2021/07/13 11:18:36;;;;;;;31.00;21.67;;;21.80;99.90;;;;;;5055319;28;20044;-88
2021/07/13 11:21:20;;;;;;;34.72;23.17;;;21.80;99.90;;;;;;5071265;28;20059;-87
2021/07/13 11:24:08;;;;;;;32.63;23.15;;;21.80;99.90;;;;;;5091751;28;20039;-88
2021/07/13 11:26:42;;;;;;;30.95;25.13;;;21.70;99.90;;;;;;5091559;28;20036;-88
2021/07/13 11:29:23;;;;;;;40.97;25.83;;;21.70;99.90;;;;;;5075326;28;20071;-87
2021/07/13 11:32:03;;;;;;;40.50;27.15;;;21.70;99.90;;;;;;5092165;28;20032;-87
2021/07/13 11:34:40;;;;;;;39.22;25.65;;;21.70;99.90;;;;;;5092948;28;20044;-87
2021/07/13 11:37:18;;;;;;;39.40;26.73;;;21.60;99.90;;;;;;5090349;28;20132;-87
2021/07/13 11:39:48;;;;;;;36.92;26.67;;;21.60;99.90;;;;;;5084420;28;20067;-86
2021/07/13 11:42:30;;;;;;;37.90;26.88;;;21.60;99.90;;;;;;5071078;28;20040;-86
2021/07/13 11:45:02;;;;;;;36.20;27.55;;;21.50;99.90;;;;;;5084333;28;20112;-86
2021/07/13 11:47:31;;;;;;;42.25;27.20;;;21.50;99.90;;;;;;5092527;28;20028;-87
2021/07/13 11:50:14;;;;;;;38.67;27.80;;;21.50;99.90;;;;;;5091791;28;20055;-87
2021/07/13 11:52:48;;;;;;;39.95;27.70;;;21.40;99.90;;;;;;5078122;28;20503;-87
2021/07/13 11:55:23;;;;;;;;;;;21.30;99.90;;;;;;5075589;28;20040;-87
2021/07/13 12:01:30;;;;;;;51.45;30.63;;;21.20;99.90;;;;;;5040008;28;20123;-86
2021/07/13 12:04:14;;;;;;;47.28;29.80;;;21.40;99.90;;;;;;5088735;28;20376;-87
2021/07/13 12:06:55;;;;;;;48.03;31.90;;;21.10;99.90;;;;;;5067035;28;20131;-87
2021/07/13 12:09:49;;;;;;;48.10;31.00;;;21.10;99.90;;;;;;5077877;28;20120;-87
2021/07/13 12:12:42;;;;;;;50.50;30.98;;;21.00;99.90;;;;;;5088405;28;20500;-87
2021/07/13 12:15:47;;;;;;;43.40;29.63;;;20.90;99.90;;;;;;5095314;28;20040;-87
2021/07/13 12:18:18;;;;;;;43.03;29.73;;;20.80;99.90;;;;;;5078584;28;20055;-87
2021/07/13 12:20:47;;;;;;;43.88;28.80;;;20.80;99.90;;;;;;5091350;28;20043;-87
2021/07/13 12:23:28;;;;;;;42.85;28.15;;;20.80;99.90;;;;;;5081897;28;20028;-87
2021/07/13 12:26:22;;;;;;;40.13;27.38;;;20.80;99.90;;;;;;5091247;28;20085;-86
2021/07/13 12:29:20;;;;;;;44.13;26.80;;;20.80;99.90;;;;;;5067136;28;20040;-88
2021/07/13 12:32:04;;;;;;;41.95;26.83;;;20.80;99.90;;;;;;5096218;28;20047;-87
2021/07/13 12:34:53;;;;;;;37.08;25.50;;;20.70;99.90;;;;;;5094522;28;20123;-88
2021/07/13 12:37:25;;;;;;;40.35;25.33;;;20.70;99.90;;;;;;5094189;28;20036;-86
2021/07/13 12:40:00;;;;;;;39.72;25.35;;;20.60;99.90;;;;;;5093764;28;20426;-85
2021/07/13 12:42:34;;;;;;;37.03;24.55;;;20.60;99.90;;;;;;5081230;28;20105;-84
2021/07/13 12:45:10;;;;;;;34.85;25.23;;;20.60;99.90;;;;;;5094146;28;20059;-85
2021/07/13 12:47:38;;;;;;;37.35;24.95;;;20.60;99.90;;;;;;5093148;28;20044;-86
2021/07/13 12:50:07;;;;;;;40.58;25.80;;;20.50;99.90;;;;;;5093743;28;20504;-84
2021/07/13 12:52:34;;;;;;;41.70;25.95;;;20.50;99.90;;;;;;5095053;28;20032;-86
2021/07/13 12:55:26;;;;;;;43.95;26.05;;;20.50;99.90;;;;;;5076904;28;20474;-85
2021/07/13 12:57:52;;;;;;;46.40;27.80;;;20.50;99.90;;;;;;5081838;28;20499;-84
2021/07/13 13:00:27;;;;;;;45.08;28.65;;;20.50;99.90;;;;;;5093444;28;20480;-85
2021/07/13 13:03:11;;;;;;;44.67;27.92;;;20.50;99.90;;;;;;5092268;28;20040;-85
2021/07/13 13:05:42;;;;;;;52.33;30.02;;;20.60;99.90;;;;;;5094517;28;20039;-85
2021/07/13 13:08:49;;;;;;;52.22;30.52;;;20.50;99.90;;;;;;5076743;28;20044;-85